createdAt,value
2022-12-24T00:01:06.826Z,10.57
2022-12-24T00:03:36.410Z,9.80
2022-12-24T00:06:22.129Z,9.32
2022-12-24T00:08:51.026Z,8.68
2022-12-24T00:11:19.197Z,8.73
2022-12-24T00:13:46.575Z,8.82
2022-12-24T00:16:13.989Z,8.90
2022-12-24T00:18:46.415Z,7.93
2022-12-24T00:21:15.074Z,8.52
2022-12-24T00:23:42.799Z,8.13
2022-12-24T00:26:10.060Z,8.73
2022-12-24T00:28:37.354Z,8.20
2022-12-24T00:31:12.730Z,7.53
2022-12-24T00:33:40.476Z,7.05
2022-12-24T00:36:08.567Z,7.18
2022-12-24T00:38:35.943Z,7.70
2022-12-24T00:41:05.076Z,6.70
2022-12-24T00:43:32.776Z,7.10
2022-12-24T00:46:00.577Z,7.15
2022-12-24T00:48:27.888Z,6.32
2022-12-24T00:50:55.361Z,7.15
2022-12-24T00:53:22.622Z,5.95
2022-12-24T00:55:49.929Z,6.63
2022-12-24T00:58:17.200Z,6.43
2022-12-24T01:00:44.466Z,6.32
2022-12-24T01:03:11.817Z,5.80
2022-12-24T01:05:39.124Z,5.72
2022-12-24T01:08:06.471Z,6.13
2022-12-24T01:10:33.770Z,5.70
2022-12-24T01:13:04.260Z,6.13
2022-12-24T01:15:31.913Z,5.65
2022-12-24T01:17:59.226Z,5.70
2022-12-24T01:20:31.524Z,5.60
2022-12-24T01:22:58.914Z,4.82
2022-12-24T01:25:26.211Z,5.07
2022-12-24T01:27:53.529Z,5.13
2022-12-24T01:30:20.900Z,5.20
2022-12-24T01:32:48.158Z,5.25
2022-12-24T01:35:15.695Z,5.22
2022-12-24T01:37:43.325Z,5.05
2022-12-24T01:40:34.482Z,4.72
2022-12-24T01:43:20.299Z,4.75
2022-12-24T01:45:54.726Z,5.05
2022-12-24T01:48:34.208Z,4.55
2022-12-24T01:51:23.006Z,4.05
2022-12-24T01:53:57.198Z,4.45
2022-12-24T01:56:26.009Z,4.63
2022-12-24T01:58:57.471Z,4.68
2022-12-24T02:01:25.030Z,4.03
2022-12-24T02:03:52.985Z,5.28
2022-12-24T02:06:22.346Z,4.55
2022-12-24T02:08:49.689Z,4.30
2022-12-24T02:11:20.352Z,4.35
2022-12-24T02:13:53.428Z,4.35
2022-12-24T02:16:58.312Z,4.50
2022-12-24T02:19:37.346Z,4.30
2022-12-24T02:22:13.857Z,4.32
2022-12-24T02:25:05.996Z,3.85
2022-12-24T02:27:52.142Z,4.40
2022-12-24T02:30:21.833Z,4.07
2022-12-24T02:33:10.874Z,4.25
2022-12-24T02:35:53.605Z,3.95
2022-12-24T02:38:29.077Z,3.65
2022-12-24T02:41:02.583Z,3.88
2022-12-24T02:43:35.853Z,3.30
2022-12-24T02:46:08.981Z,3.97
2022-12-24T02:48:38.621Z,3.90
2022-12-24T02:51:08.707Z,4.03
2022-12-24T02:53:37.494Z,3.83
2022-12-24T02:56:09.910Z,3.47
2022-12-24T02:58:40.182Z,4.25
2022-12-24T03:01:17.393Z,3.72
2022-12-24T03:03:59.987Z,3.78
2022-12-24T03:06:57.927Z,3.72
2022-12-24T03:09:55.867Z,3.83
2022-12-24T03:12:35.882Z,4.00
2022-12-24T03:15:05.668Z,3.08
2022-12-24T03:17:37.502Z,3.55
2022-12-24T03:20:08.535Z,3.90
2022-12-24T03:22:36.093Z,3.50
2022-12-24T03:25:04.537Z,4.35
2022-12-24T03:27:34.294Z,3.60
2022-12-24T03:30:04.516Z,4.25
2022-12-24T03:32:33.197Z,3.42
2022-12-24T03:35:00.840Z,3.80
2022-12-24T03:37:28.128Z,3.50
2022-12-24T03:39:55.432Z,3.25
2022-12-24T03:42:22.693Z,3.55
2022-12-24T03:44:50.032Z,3.28
2022-12-24T03:47:17.252Z,3.40
2022-12-24T03:49:44.527Z,3.05
2022-12-24T03:52:11.856Z,3.25
2022-12-24T03:54:39.168Z,3.20
2022-12-24T03:57:06.510Z,3.55
2022-12-24T03:59:33.805Z,3.05
2022-12-24T04:02:01.250Z,3.20
2022-12-24T04:04:28.651Z,3.85
2022-12-24T04:06:55.973Z,3.50
2022-12-24T04:09:23.246Z,3.47
2022-12-24T04:11:50.517Z,3.50
2022-12-24T04:14:17.833Z,3.13
2022-12-24T04:16:45.179Z,2.88
2022-12-24T04:19:12.502Z,3.88
2022-12-24T04:21:39.751Z,2.60
2022-12-24T04:24:07.190Z,3.13
2022-12-24T04:26:34.460Z,3.45
2022-12-24T04:29:01.679Z,3.20
2022-12-24T04:31:29.121Z,2.92
2022-12-24T04:33:56.429Z,2.72
2022-12-24T04:36:24.119Z,3.50
2022-12-24T04:38:51.508Z,2.92
2022-12-24T04:41:24.129Z,3.60
2022-12-24T04:43:53.975Z,3.25
2022-12-24T04:46:24.084Z,3.20
2022-12-24T04:48:53.296Z,3.33
2022-12-24T04:51:21.409Z,2.88
2022-12-24T04:53:49.511Z,2.90
2022-12-24T04:56:20.530Z,3.10
2022-12-24T04:58:48.202Z,2.80
2022-12-24T05:01:25.024Z,3.33
2022-12-24T05:03:53.521Z,3.20
2022-12-24T05:06:24.131Z,2.90
2022-12-24T05:08:53.982Z,3.10
2022-12-24T05:11:21.247Z,3.35
2022-12-24T05:13:48.551Z,3.88
2022-12-24T05:16:18.114Z,3.13
2022-12-24T05:18:45.930Z,3.28
2022-12-24T05:21:22.274Z,3.20
2022-12-24T05:24:08.487Z,3.13
2022-12-24T05:26:41.517Z,3.42
2022-12-24T05:29:12.240Z,3.03
2022-12-24T05:31:40.789Z,3.40
2022-12-24T05:34:09.680Z,3.38
2022-12-24T05:36:37.332Z,3.00
2022-12-24T05:39:09.817Z,3.50
2022-12-24T05:41:41.058Z,3.10
2022-12-24T05:44:08.365Z,3.40
2022-12-24T05:46:35.748Z,3.08
2022-12-24T05:49:03.051Z,2.78
2022-12-24T05:51:30.327Z,2.92
2022-12-24T05:53:57.576Z,3.92
2022-12-24T05:56:25.802Z,2.90
2022-12-24T05:58:54.708Z,3.47
2022-12-24T06:01:23.111Z,3.60
2022-12-24T06:03:51.709Z,3.22
2022-12-24T06:06:22.065Z,3.65
2022-12-24T06:08:50.465Z,3.80
2022-12-24T06:11:21.682Z,3.33
2022-12-24T06:13:49.496Z,3.20
2022-12-24T06:16:19.241Z,3.17
2022-12-24T06:18:46.980Z,3.22
2022-12-24T06:21:14.559Z,2.92
2022-12-24T06:23:43.834Z,3.08
2022-12-24T06:26:15.540Z,3.17
2022-12-24T06:28:43.430Z,3.63
2022-12-24T06:31:14.484Z,2.90
2022-12-24T06:33:42.243Z,3.10
2022-12-24T06:36:17.259Z,3.63
2022-12-24T06:38:46.019Z,3.58
2022-12-24T06:41:13.424Z,4.10
2022-12-24T06:43:43.736Z,3.33
2022-12-24T06:46:11.167Z,3.38
2022-12-24T06:48:38.478Z,3.55
2022-12-24T06:51:05.940Z,3.40
2022-12-24T06:53:33.667Z,3.50
2022-12-24T06:56:10.290Z,2.92
2022-12-24T06:58:37.904Z,3.40
2022-12-24T07:01:07.282Z,3.80
2022-12-24T07:03:35.042Z,3.88
2022-12-24T07:06:02.667Z,3.13
2022-12-24T07:08:33.564Z,3.40
2022-12-24T07:11:01.109Z,4.43
2022-12-24T07:13:29.282Z,3.45
2022-12-24T07:16:03.977Z,4.20
2022-12-24T07:18:32.138Z,3.80
2022-12-24T07:20:59.427Z,4.25
2022-12-24T07:23:26.970Z,4.20
2022-12-24T07:25:54.278Z,3.63
2022-12-24T07:28:27.486Z,2.95
2022-12-24T07:30:56.860Z,2.92
2022-12-24T07:33:25.185Z,3.88
2022-12-24T07:36:01.093Z,3.72
2022-12-24T07:38:29.292Z,3.63
2022-12-24T07:40:57.710Z,3.63
2022-12-24T07:43:26.030Z,3.75
2022-12-24T07:45:58.867Z,3.95
2022-12-24T07:48:27.823Z,3.50
2022-12-24T07:50:56.010Z,3.25
2022-12-24T07:53:24.162Z,4.00
2022-12-24T07:55:51.677Z,3.60
2022-12-24T07:58:19.659Z,3.20
2022-12-24T08:00:46.986Z,3.58
2022-12-24T08:03:21.792Z,3.63
2022-12-24T08:05:49.365Z,3.63
2022-12-24T08:08:16.622Z,3.70
2022-12-24T08:10:45.964Z,3.33
2022-12-24T08:13:14.262Z,3.40
2022-12-24T08:15:41.642Z,3.92
2022-12-24T08:18:09.375Z,3.90
2022-12-24T08:20:40.051Z,3.10
2022-12-24T08:23:08.093Z,3.33
2022-12-24T08:25:36.021Z,3.53
2022-12-24T08:28:04.081Z,3.95
2022-12-24T08:30:31.348Z,3.17
2022-12-24T08:32:58.613Z,3.45
2022-12-24T08:35:25.928Z,3.88
2022-12-24T08:37:53.289Z,3.40
2022-12-24T08:40:20.602Z,3.67
2022-12-24T08:42:47.931Z,3.90
2022-12-24T08:45:15.879Z,3.22
2022-12-24T08:47:43.201Z,3.45
2022-12-24T08:50:11.772Z,3.60
2022-12-24T08:52:39.331Z,3.53
2022-12-24T08:55:07.627Z,4.13
2022-12-24T08:57:37.286Z,4.00
2022-12-24T09:00:06.846Z,3.83
2022-12-24T09:02:34.458Z,3.50
2022-12-24T09:05:01.939Z,4.05
2022-12-24T09:07:29.298Z,4.35
2022-12-24T09:09:56.573Z,5.30
2022-12-24T09:12:23.875Z,4.57
2022-12-24T09:14:59.525Z,4.47
2022-12-24T09:17:30.377Z,5.10
2022-12-24T09:19:57.636Z,4.95
2022-12-24T09:22:25.077Z,5.28
2022-12-24T09:24:54.637Z,5.72
2022-12-24T09:27:21.928Z,5.95
2022-12-24T09:29:49.296Z,5.70
2022-12-24T09:32:16.865Z,6.05
2022-12-24T09:34:44.208Z,6.15
2022-12-24T09:37:11.504Z,5.88
2022-12-24T09:39:38.771Z,6.05
2022-12-24T09:42:15.031Z,6.38
2022-12-24T09:44:55.305Z,6.78
2022-12-24T09:47:41.228Z,6.75
2022-12-24T09:50:22.648Z,5.70
2022-12-24T09:52:52.403Z,6.85
2022-12-24T09:55:26.243Z,6.88
2022-12-24T09:57:55.435Z,7.32
2022-12-24T10:00:36.740Z,7.18
2022-12-24T10:03:16.698Z,6.63
2022-12-24T10:06:29.389Z,6.68
2022-12-24T10:09:12.065Z,7.53
2022-12-24T10:12:13.472Z,6.90
2022-12-24T10:14:50.896Z,7.63
2022-12-24T10:17:36.852Z,7.95
2022-12-24T10:20:15.884Z,8.00
2022-12-24T10:23:15.119Z,7.43
2022-12-24T10:26:07.849Z,7.90
2022-12-24T10:28:46.073Z,8.73
2022-12-24T10:31:13.809Z,8.48
2022-12-24T10:33:54.370Z,8.80
2022-12-24T10:36:27.421Z,8.57
2022-12-24T10:38:55.093Z,8.15
2022-12-24T10:41:24.603Z,8.05
2022-12-24T10:43:52.569Z,8.57
2022-12-24T10:46:24.040Z,8.88
2022-12-24T10:49:05.455Z,9.38
2022-12-24T10:51:45.601Z,9.52
2022-12-24T10:54:26.613Z,9.85
2022-12-24T10:57:02.806Z,9.18
2022-12-24T10:59:53.966Z,8.80
2022-12-24T11:02:48.582Z,9.50
2022-12-24T11:05:45.300Z,9.25
2022-12-24T11:08:18.134Z,9.90
2022-12-24T11:10:58.029Z,9.23
2022-12-24T11:13:38.489Z,9.43
2022-12-24T11:16:21.645Z,9.77
2022-12-24T11:18:55.320Z,9.88
2022-12-24T11:21:28.389Z,10.70
2022-12-24T11:23:58.901Z,9.65
2022-12-24T11:26:31.317Z,10.68
2022-12-24T11:29:24.250Z,10.65
2022-12-24T11:31:52.974Z,10.80
2022-12-24T11:34:24.583Z,9.60
2022-12-24T11:36:53.437Z,10.55
2022-12-24T11:39:26.034Z,10.10
2022-12-24T11:41:54.506Z,10.57
2022-12-24T11:44:27.400Z,10.38
2022-12-24T11:46:58.985Z,10.07
2022-12-24T11:49:32.031Z,9.57
2022-12-24T11:52:03.501Z,10.55
2022-12-24T11:54:35.737Z,10.38
2022-12-24T11:57:03.935Z,10.80
2022-12-24T11:59:41.118Z,10.30
2022-12-24T12:02:29.212Z,9.68
2022-12-24T12:05:05.220Z,10.30
2022-12-24T12:07:36.104Z,9.77
2022-12-24T12:10:37.321Z,10.27
2022-12-24T12:13:15.915Z,10.85
2022-12-24T12:15:50.242Z,10.93
2022-12-24T12:18:23.796Z,10.35
2022-12-24T12:21:02.226Z,10.15
2022-12-24T12:23:31.583Z,9.60
2022-12-24T12:26:17.895Z,10.75
2022-12-24T12:29:14.959Z,10.18
2022-12-24T12:31:48.227Z,10.13
2022-12-24T12:34:27.285Z,9.95
2022-12-24T12:37:09.601Z,9.50
2022-12-24T12:39:40.365Z,11.50
2022-12-24T12:42:16.545Z,10.20
2022-12-24T12:44:49.729Z,10.27
2022-12-24T12:47:57.127Z,9.98
2022-12-24T12:50:39.633Z,10.55
2022-12-24T12:53:35.211Z,10.63
2022-12-24T12:56:34.002Z,10.73
2022-12-24T12:59:22.785Z,10.57
2022-12-24T13:02:11.176Z,9.85
2022-12-24T13:04:51.970Z,11.15
2022-12-24T13:07:37.530Z,11.07
2022-12-24T13:10:17.060Z,10.40
2022-12-24T13:13:01.735Z,11.25
2022-12-24T13:15:31.953Z,12.38
2022-12-24T13:18:45.301Z,12.07
2022-12-24T13:21:22.917Z,12.80
2022-12-24T13:23:50.659Z,13.32
2022-12-24T13:26:19.479Z,12.68
2022-12-24T13:28:46.802Z,13.27
2022-12-24T13:31:20.305Z,13.63
2022-12-24T13:33:50.361Z,14.05
2022-12-24T13:36:19.874Z,13.55
2022-12-24T13:39:00.030Z,13.95
2022-12-24T13:41:38.759Z,14.98
2022-12-24T13:44:12.565Z,13.73
2022-12-24T13:47:05.026Z,14.43
2022-12-24T13:49:40.452Z,13.43
2022-12-24T13:52:11.902Z,14.05
2022-12-24T13:54:46.657Z,14.18
2022-12-24T13:57:35.737Z,13.95
2022-12-24T14:00:25.839Z,14.00
2022-12-24T14:02:58.248Z,14.43
2022-12-24T14:05:30.930Z,13.45
2022-12-24T14:08:00.608Z,13.88
2022-12-24T14:10:35.547Z,13.80
2022-12-24T14:13:02.915Z,14.50
2022-12-24T14:15:49.878Z,14.77
2022-12-24T14:18:24.954Z,14.68
2022-12-24T14:20:56.312Z,15.63
2022-12-24T14:23:48.057Z,14.63
2022-12-24T14:26:18.663Z,14.68
2022-12-24T14:28:57.599Z,14.98
2022-12-24T14:31:25.187Z,15.70
2022-12-24T14:33:52.566Z,15.52
2022-12-24T14:36:24.056Z,14.80
2022-12-24T14:38:51.588Z,14.32
2022-12-24T14:41:30.201Z,14.45
2022-12-24T14:44:02.661Z,15.32
2022-12-24T14:46:35.093Z,16.10
2022-12-24T14:49:21.653Z,16.67
2022-12-24T14:51:54.952Z,15.70
2022-12-24T14:54:39.203Z,15.68
2022-12-24T14:57:21.662Z,14.50
2022-12-24T14:59:53.528Z,16.00
2022-12-24T15:02:25.046Z,15.73
2022-12-24T15:05:17.077Z,14.95
2022-12-24T15:08:09.000Z,14.63
2022-12-24T15:10:39.646Z,14.32
2022-12-24T15:13:32.731Z,15.50
2022-12-24T15:16:05.646Z,14.55
2022-12-24T15:18:36.574Z,14.93
2022-12-24T15:21:07.215Z,15.00
2022-12-24T15:23:37.016Z,13.82
2022-12-24T15:26:14.120Z,14.55
2022-12-24T15:28:41.672Z,14.32
2022-12-24T15:31:13.699Z,14.32
2022-12-24T15:33:43.961Z,14.38
2022-12-24T15:36:11.454Z,14.13
2022-12-24T15:38:41.427Z,13.68
2022-12-24T15:41:58.927Z,14.05
2022-12-24T15:44:27.350Z,13.43
2022-12-24T15:47:00.622Z,12.75
2022-12-24T15:49:30.099Z,12.50
2022-12-24T15:52:12.572Z,12.50
2022-12-24T15:54:52.164Z,11.43
2022-12-24T15:57:33.977Z,11.57
2022-12-24T16:00:04.247Z,10.73
2022-12-24T16:02:42.906Z,11.13
2022-12-24T16:05:33.079Z,11.25
2022-12-24T16:08:10.155Z,10.40
2022-12-24T16:10:48.205Z,10.70
2022-12-24T16:13:30.312Z,10.15
2022-12-24T16:16:11.393Z,9.55
2022-12-24T16:18:51.749Z,9.70
2022-12-24T16:21:28.043Z,9.68
2022-12-24T16:23:57.595Z,9.48
2022-12-24T16:26:25.183Z,9.30
2022-12-24T16:28:52.526Z,9.40
2022-12-24T16:31:31.359Z,8.85
2022-12-24T16:34:00.629Z,9.13
2022-12-24T16:36:29.481Z,8.98
2022-12-24T16:39:17.286Z,8.60
2022-12-24T16:42:03.093Z,8.80
2022-12-24T16:44:30.401Z,8.32
2022-12-24T16:47:00.373Z,8.40
2022-12-24T16:49:28.953Z,7.85
2022-12-24T16:51:56.589Z,7.45
2022-12-24T16:54:23.862Z,8.05
2022-12-24T16:56:51.218Z,8.35
2022-12-24T16:59:21.475Z,7.63
2022-12-24T17:01:49.998Z,7.72
2022-12-24T17:04:18.297Z,7.32
2022-12-24T17:06:48.467Z,7.88
2022-12-24T17:09:16.188Z,7.10
2022-12-24T17:11:43.478Z,7.40
2022-12-24T17:14:19.805Z,7.63
2022-12-24T17:16:47.913Z,7.95
2022-12-24T17:19:15.435Z,7.35
2022-12-24T17:21:42.900Z,7.40
2022-12-24T17:24:10.504Z,6.45
2022-12-24T17:26:38.199Z,7.22
2022-12-24T17:29:06.359Z,7.28
2022-12-24T17:31:34.120Z,7.18
2022-12-24T17:34:01.563Z,6.70
2022-12-24T17:36:28.897Z,6.75
2022-12-24T17:38:56.225Z,6.43
2022-12-24T17:41:23.974Z,6.85
2022-12-24T17:43:51.288Z,6.93
2022-12-24T17:46:23.841Z,6.72
2022-12-24T17:48:52.237Z,6.35
2022-12-24T17:51:21.967Z,6.03
2022-12-24T17:53:49.838Z,6.47
2022-12-24T17:56:17.959Z,6.18
2022-12-24T17:58:46.440Z,6.53
2022-12-24T18:01:25.007Z,5.80
2022-12-24T18:03:53.340Z,5.93
2022-12-24T18:06:21.211Z,6.10
2022-12-24T18:08:48.713Z,5.70
2022-12-24T18:11:20.512Z,6.05
2022-12-24T18:13:48.419Z,6.07
2022-12-24T18:16:26.519Z,5.50
2022-12-24T18:18:54.392Z,6.18
2022-12-24T18:21:23.545Z,5.40
2022-12-24T18:23:52.240Z,5.50
2022-12-24T18:26:20.586Z,5.30
2022-12-24T18:28:47.912Z,5.15
2022-12-24T18:31:19.040Z,4.85
2022-12-24T18:33:48.715Z,5.43
2022-12-24T18:36:16.547Z,5.00
2022-12-24T18:38:43.927Z,5.25
2022-12-24T18:41:14.177Z,5.18
2022-12-24T18:43:41.552Z,5.20
2022-12-24T18:46:15.113Z,5.50
2022-12-24T18:48:42.649Z,4.80
2022-12-24T18:51:11.098Z,5.22
2022-12-24T18:53:39.041Z,4.90
2022-12-24T18:56:10.628Z,4.85
2022-12-24T18:58:38.090Z,4.68
2022-12-24T19:01:22.073Z,4.53
2022-12-24T19:03:49.892Z,5.00
2022-12-24T19:06:18.366Z,5.00
2022-12-24T19:08:57.130Z,4.90
2022-12-24T19:11:26.080Z,4.65
2022-12-24T19:13:53.542Z,4.22
2022-12-24T19:16:21.847Z,5.35
2022-12-24T19:18:49.607Z,4.60
2022-12-24T19:21:18.103Z,5.10
2022-12-24T19:23:46.422Z,4.90
2022-12-24T19:26:15.523Z,4.25
2022-12-24T19:28:43.329Z,4.60
2022-12-24T19:31:14.253Z,4.55
2022-12-24T19:33:47.647Z,4.30
2022-12-24T19:36:17.315Z,4.35
2022-12-24T19:38:45.363Z,4.30
2022-12-24T19:41:21.145Z,3.95
2022-12-24T19:43:50.542Z,4.25
2022-12-24T19:46:20.790Z,4.28
2022-12-24T19:48:54.309Z,4.43
2022-12-24T19:51:22.633Z,4.45
2022-12-24T19:53:50.236Z,4.22
2022-12-24T19:56:19.504Z,3.78
2022-12-24T19:58:47.253Z,3.88
2022-12-24T20:01:20.343Z,4.00
2022-12-24T20:03:49.056Z,3.90
2022-12-24T20:06:18.549Z,3.65
2022-12-24T20:08:45.837Z,3.70
2022-12-24T20:11:15.762Z,4.03
2022-12-24T20:13:43.624Z,4.20
2022-12-24T20:16:17.282Z,3.95
2022-12-24T20:18:44.815Z,3.83
2022-12-24T20:21:13.258Z,4.25
2022-12-24T20:23:41.574Z,4.25
2022-12-24T20:26:11.985Z,3.72
2022-12-24T20:28:40.140Z,3.50
2022-12-24T20:31:13.793Z,4.10
2022-12-24T20:33:42.558Z,3.25
2022-12-24T20:36:11.174Z,3.50
2022-12-24T20:38:39.230Z,3.63
2022-12-24T20:41:09.721Z,4.35
2022-12-24T20:43:44.930Z,3.90
2022-12-24T20:46:15.085Z,3.78
2022-12-24T20:48:42.470Z,4.07
2022-12-24T20:51:17.597Z,4.18
2022-12-24T20:53:48.815Z,3.83
2022-12-24T20:56:17.538Z,3.22
2022-12-24T20:58:45.565Z,4.10
2022-12-24T21:01:18.592Z,3.70
2022-12-24T21:03:46.355Z,3.30
2022-12-24T21:06:17.655Z,3.92
2022-12-24T21:08:46.624Z,3.10
2022-12-24T21:11:32.644Z,3.97
2022-12-24T21:14:02.263Z,4.35
2022-12-24T21:16:31.250Z,3.88
2022-12-24T21:18:58.717Z,4.35
2022-12-24T21:21:27.488Z,4.63
2022-12-24T21:23:54.830Z,4.28
2022-12-24T21:26:22.295Z,4.35
2022-12-24T21:28:50.484Z,5.72
2022-12-24T21:31:17.966Z,5.47
2022-12-24T21:33:45.499Z,5.10
2022-12-24T21:36:14.396Z,5.50
2022-12-24T21:38:42.147Z,5.55
2022-12-24T21:41:21.701Z,6.00
2022-12-24T21:43:49.269Z,6.63
2022-12-24T21:46:23.007Z,7.00
2022-12-24T21:49:10.594Z,6.32
2022-12-24T21:51:38.893Z,6.63
2022-12-24T21:54:25.682Z,6.78
2022-12-24T21:57:13.971Z,8.43
2022-12-24T21:59:41.329Z,7.70
2022-12-24T22:02:11.724Z,7.38
2022-12-24T22:04:39.300Z,8.10
2022-12-24T22:07:24.983Z,7.72
2022-12-24T22:10:10.661Z,7.55
2022-12-24T22:12:38.007Z,7.60
2022-12-24T22:15:07.006Z,8.68
2022-12-24T22:17:34.366Z,8.50
2022-12-24T22:20:01.713Z,8.65
2022-12-24T22:22:29.023Z,8.20
2022-12-24T22:24:56.277Z,8.57
2022-12-24T22:27:23.997Z,9.27
2022-12-24T22:29:51.447Z,9.27
2022-12-24T22:32:19.016Z,9.13
2022-12-24T22:34:46.604Z,9.65
2022-12-24T22:37:13.865Z,9.25
2022-12-24T22:39:41.168Z,10.27
2022-12-24T22:42:08.554Z,11.15
2022-12-24T22:44:35.867Z,10.52
2022-12-24T22:47:03.243Z,11.60
2022-12-24T22:49:30.668Z,12.57
2022-12-24T22:51:58.661Z,12.10
2022-12-24T22:54:26.119Z,12.20
2022-12-24T22:56:53.427Z,13.65
2022-12-24T22:59:20.732Z,13.60
2022-12-24T23:01:48.629Z,13.85
2022-12-24T23:04:16.162Z,14.02
2022-12-24T23:06:44.597Z,14.82
2022-12-24T23:09:15.794Z,13.50
2022-12-24T23:11:44.096Z,15.90
2022-12-24T23:14:35.647Z,15.75
2022-12-24T23:17:03.112Z,16.58
2022-12-24T23:19:32.039Z,16.58
2022-12-24T23:22:00.164Z,16.30
2022-12-24T23:24:27.812Z,16.50
2022-12-24T23:26:55.416Z,17.63
2022-12-24T23:29:22.987Z,17.25
2022-12-24T23:31:50.293Z,15.68
2022-12-24T23:34:17.534Z,17.17
2022-12-24T23:36:44.867Z,17.77
2022-12-24T23:39:12.148Z,17.52
2022-12-24T23:41:39.390Z,17.73
2022-12-24T23:44:06.704Z,17.52
2022-12-24T23:46:34.064Z,17.23
2022-12-24T23:49:01.447Z,17.30
2022-12-24T23:51:29.228Z,17.25
2022-12-24T23:53:57.697Z,17.02
2022-12-24T23:56:26.212Z,16.73
2022-12-24T23:58:53.931Z,16.90
